createdAt,value
2023-04-07T00:01:46.256Z,6.57
2023-04-07T00:04:12.681Z,7.97
2023-04-07T00:06:40.439Z,7.40
2023-04-07T00:09:07.098Z,7.28
2023-04-07T00:11:33.405Z,5.72
2023-04-07T00:13:59.674Z,6.25
2023-04-07T00:16:25.981Z,6.47
2023-04-07T00:18:52.283Z,6.32
2023-04-07T00:21:18.521Z,6.93
2023-04-07T00:23:44.961Z,6.03
2023-04-07T00:26:11.315Z,6.75
2023-04-07T00:28:37.816Z,6.95
2023-04-07T00:31:04.159Z,7.28
2023-04-07T00:33:30.620Z,7.30
2023-04-07T00:35:58.654Z,7.60
2023-04-07T00:38:25.057Z,7.75
2023-04-07T00:40:57.246Z,7.47
2023-04-07T00:43:23.640Z,8.05
2023-04-07T00:45:49.879Z,8.52
2023-04-07T00:48:16.158Z,8.63
2023-04-07T00:50:42.505Z,9.50
2023-04-07T00:53:08.786Z,9.90
2023-04-07T00:55:35.232Z,9.23
2023-04-07T00:58:01.544Z,9.45
2023-04-07T01:00:27.999Z,8.95
2023-04-07T01:03:06.530Z,8.05
2023-04-07T01:05:42.693Z,8.73
2023-04-07T01:08:15.053Z,8.73
2023-04-07T01:10:52.717Z,8.63
2023-04-07T01:13:32.351Z,8.35
2023-04-07T01:16:00.873Z,8.35
2023-04-07T01:18:32.143Z,8.48
2023-04-07T01:21:06.567Z,8.38
2023-04-07T01:23:51.671Z,8.13
2023-04-07T01:26:28.336Z,9.40
2023-04-07T01:29:03.663Z,7.97
2023-04-07T01:31:30.455Z,9.07
2023-04-07T01:33:59.115Z,9.27
2023-04-07T01:36:28.186Z,9.20
2023-04-07T01:38:54.950Z,8.90
2023-04-07T01:41:22.060Z,9.27
2023-04-07T01:43:48.906Z,9.35
2023-04-07T01:46:15.741Z,9.63
2023-04-07T01:48:42.292Z,9.68
2023-04-07T01:51:11.480Z,9.05
2023-04-07T01:53:39.124Z,9.98
2023-04-07T01:56:05.724Z,10.80
2023-04-07T01:58:32.006Z,12.63
2023-04-07T02:00:58.513Z,13.50
2023-04-07T02:03:29.532Z,12.95
2023-04-07T02:05:57.844Z,13.88
2023-04-07T02:08:25.426Z,12.85
2023-04-07T02:10:52.660Z,12.65
2023-04-07T02:13:19.941Z,12.43
2023-04-07T02:15:46.866Z,12.50
2023-04-07T02:18:14.626Z,12.25
2023-04-07T02:20:42.376Z,11.50
2023-04-07T02:23:08.831Z,10.93
2023-04-07T02:25:38.076Z,11.13
2023-04-07T02:28:04.758Z,10.43
2023-04-07T02:30:31.487Z,10.93
2023-04-07T02:32:57.856Z,10.65
2023-04-07T02:35:24.247Z,10.52
2023-04-07T02:37:50.685Z,10.70
2023-04-07T02:40:16.962Z,11.38
2023-04-07T02:42:43.290Z,10.98
2023-04-07T02:45:10.044Z,10.73
2023-04-07T02:47:36.711Z,10.40
2023-04-07T02:50:03.138Z,9.90
2023-04-07T02:52:29.419Z,10.27
2023-04-07T02:54:56.108Z,10.57
2023-04-07T02:57:22.522Z,10.18
2023-04-07T02:59:48.837Z,11.07
2023-04-07T03:02:15.522Z,10.57
2023-04-07T03:04:41.920Z,10.75
2023-04-07T03:07:08.215Z,10.25
2023-04-07T03:09:34.919Z,10.68
2023-04-07T03:12:02.367Z,10.30
2023-04-07T03:14:28.657Z,11.43
2023-04-07T03:16:55.087Z,11.35
2023-04-07T03:19:21.575Z,9.25
2023-04-07T03:21:47.955Z,9.48
2023-04-07T03:24:14.197Z,10.70
2023-04-07T03:26:40.596Z,10.30
2023-04-07T03:29:07.134Z,9.68
2023-04-07T03:31:33.439Z,9.00
2023-04-07T03:33:59.735Z,9.15
2023-04-07T03:36:27.960Z,8.05
2023-04-07T03:38:54.320Z,8.43
2023-04-07T03:41:21.050Z,7.95
2023-04-07T03:43:47.532Z,7.95
2023-04-07T03:46:14.004Z,9.30
2023-04-07T03:48:40.837Z,7.47
2023-04-07T03:51:07.550Z,8.30
2023-04-07T03:53:33.842Z,8.20
2023-04-07T03:56:00.955Z,8.35
2023-04-07T03:58:27.342Z,7.72
2023-04-07T04:00:53.609Z,7.85
2023-04-07T04:03:20.068Z,7.85
2023-04-07T04:05:46.534Z,8.65
2023-04-07T04:08:12.865Z,7.95
2023-04-07T04:10:39.205Z,8.48
2023-04-07T04:13:07.906Z,8.35
2023-04-07T04:15:34.300Z,8.07
2023-04-07T04:18:01.134Z,7.55
2023-04-07T04:20:27.444Z,8.85
2023-04-07T04:22:53.666Z,8.25
2023-04-07T04:25:20.091Z,9.07
2023-04-07T04:27:46.357Z,8.25
2023-04-07T04:30:12.748Z,8.40
2023-04-07T04:32:39.612Z,11.00
2023-04-07T04:35:06.357Z,8.23
2023-04-07T04:37:32.653Z,8.38
2023-04-07T04:39:58.989Z,9.05
2023-04-07T04:42:26.920Z,10.00
2023-04-07T04:44:53.192Z,10.10
2023-04-07T04:47:19.715Z,9.30
2023-04-07T04:49:46.032Z,9.05
2023-04-07T04:52:12.321Z,9.10
2023-04-07T04:54:38.606Z,8.93
2023-04-07T04:57:04.877Z,9.30
2023-04-07T04:59:31.393Z,9.85
2023-04-07T05:01:57.743Z,9.15
2023-04-07T05:04:24.379Z,9.63
2023-04-07T05:06:51.052Z,8.27
2023-04-07T05:09:17.401Z,8.45
2023-04-07T05:11:43.651Z,8.02
2023-04-07T05:14:09.897Z,7.65
2023-04-07T05:16:36.666Z,7.53
2023-04-07T05:19:03.071Z,7.50
2023-04-07T05:21:29.451Z,7.40
2023-04-07T05:23:55.751Z,6.07
2023-04-07T05:26:22.422Z,6.40
2023-04-07T05:28:48.683Z,6.40
2023-04-07T05:31:14.968Z,6.68
2023-04-07T05:33:41.413Z,6.63
2023-04-07T05:36:07.804Z,6.47
2023-04-07T05:38:34.119Z,7.15
2023-04-07T05:41:00.383Z,7.68
2023-04-07T05:43:26.657Z,7.93
2023-04-07T05:45:53.011Z,7.32
2023-04-07T05:48:19.360Z,6.78
2023-04-07T05:50:45.803Z,6.38
2023-04-07T05:53:12.298Z,6.90
2023-04-07T05:55:38.623Z,6.32
2023-04-07T05:58:05.266Z,6.95
2023-04-07T06:00:31.519Z,6.88
2023-04-07T06:02:57.908Z,6.63
2023-04-07T06:05:24.323Z,6.47
2023-04-07T06:07:50.725Z,7.50
2023-04-07T06:10:17.221Z,6.47
2023-04-07T06:12:43.476Z,6.57
2023-04-07T06:15:10.015Z,6.25
2023-04-07T06:17:36.316Z,7.35
2023-04-07T06:20:02.737Z,7.80
2023-04-07T06:22:29.001Z,6.75
2023-04-07T06:24:55.334Z,7.43
2023-04-07T06:27:22.077Z,6.85
2023-04-07T06:29:48.319Z,6.53
2023-04-07T06:32:14.560Z,6.20
2023-04-07T06:34:40.879Z,6.22
2023-04-07T06:37:07.884Z,6.63
2023-04-07T06:39:34.193Z,6.05
2023-04-07T06:42:01.584Z,6.10
2023-04-07T06:44:27.996Z,7.07
2023-04-07T06:46:55.532Z,7.93
2023-04-07T06:49:22.000Z,7.25
2023-04-07T06:51:48.300Z,7.10
2023-04-07T06:54:15.373Z,7.25
2023-04-07T06:56:42.253Z,7.57
2023-04-07T06:59:08.703Z,8.18
2023-04-07T07:01:35.040Z,8.00
2023-04-07T07:04:01.617Z,8.95
2023-04-07T07:06:28.002Z,8.60
2023-04-07T07:08:54.631Z,7.57
2023-04-07T07:11:20.881Z,7.78
2023-04-07T07:13:48.279Z,8.65
2023-04-07T07:16:14.693Z,7.30
2023-04-07T07:18:41.133Z,8.07
2023-04-07T07:21:08.116Z,7.20
2023-04-07T07:23:34.738Z,7.50
2023-04-07T07:26:00.988Z,7.50
2023-04-07T07:28:28.875Z,6.50
2023-04-07T07:30:55.501Z,7.53
2023-04-07T07:33:22.853Z,6.65
2023-04-07T07:35:49.298Z,6.70
2023-04-07T07:38:15.806Z,6.68
2023-04-07T07:40:42.184Z,6.15
2023-04-07T07:43:08.454Z,6.45
2023-04-07T07:45:34.682Z,6.30
2023-04-07T07:48:01.166Z,7.50
2023-04-07T07:50:27.692Z,7.07
2023-04-07T07:52:54.019Z,6.13
2023-04-07T07:55:20.715Z,6.28
2023-04-07T07:57:47.059Z,6.80
2023-04-07T08:00:13.787Z,6.65
2023-04-07T08:02:40.275Z,6.80
2023-04-07T08:05:07.124Z,5.50
2023-04-07T08:07:33.738Z,5.88
2023-04-07T08:10:00.149Z,5.80
2023-04-07T08:12:26.515Z,5.28
2023-04-07T08:14:52.801Z,4.85
2023-04-07T08:17:19.177Z,5.05
2023-04-07T08:19:45.879Z,5.10
2023-04-07T08:22:12.174Z,5.88
2023-04-07T08:24:38.469Z,5.05
2023-04-07T08:27:04.807Z,5.13
2023-04-07T08:29:31.355Z,4.72
2023-04-07T08:31:58.666Z,3.75
2023-04-07T08:34:25.287Z,4.63
2023-04-07T08:36:51.613Z,3.40
2023-04-07T08:39:17.987Z,4.32
2023-04-07T08:41:45.215Z,3.30
2023-04-07T08:44:11.829Z,3.20
2023-04-07T08:46:38.835Z,3.22
2023-04-07T08:49:08.089Z,3.90
2023-04-07T08:51:35.024Z,4.38
2023-04-07T08:54:12.009Z,3.45
2023-04-07T08:56:40.710Z,2.80
2023-04-07T08:59:07.816Z,3.35
2023-04-07T09:01:34.930Z,3.05
2023-04-07T09:04:02.870Z,3.45
2023-04-07T09:06:32.484Z,3.33
2023-04-07T09:08:59.081Z,4.20
2023-04-07T09:11:26.487Z,4.38
2023-04-07T09:13:52.908Z,3.92
2023-04-07T09:16:19.239Z,3.50
2023-04-07T09:18:45.766Z,3.47
2023-04-07T09:21:13.022Z,3.85
2023-04-07T09:23:41.671Z,2.70
2023-04-07T09:26:24.744Z,3.25
2023-04-07T09:28:52.899Z,3.67
2023-04-07T09:31:21.166Z,3.78
2023-04-07T09:33:48.508Z,3.05
2023-04-07T09:36:15.071Z,3.45
2023-04-07T09:38:41.926Z,2.97
2023-04-07T09:41:11.267Z,3.15
2023-04-07T09:43:38.947Z,4.10
2023-04-07T09:46:08.770Z,2.83
2023-04-07T09:48:35.164Z,2.57
2023-04-07T09:51:08.094Z,2.85
2023-04-07T09:53:47.750Z,3.10
2023-04-07T09:56:18.060Z,2.40
2023-04-07T09:58:46.000Z,2.58
2023-04-07T10:01:13.036Z,2.63
2023-04-07T10:03:39.904Z,2.30
2023-04-07T10:06:06.932Z,2.20
2023-04-07T10:08:34.247Z,3.95
2023-04-07T10:11:03.894Z,2.67
2023-04-07T10:13:31.133Z,2.42
2023-04-07T10:16:02.782Z,7.57
2023-04-07T10:18:31.663Z,2.50
2023-04-07T10:21:01.717Z,2.50
2023-04-07T10:23:33.967Z,3.00
2023-04-07T10:26:01.125Z,2.60
2023-04-07T10:28:28.491Z,3.17
2023-04-07T10:30:55.067Z,2.35
2023-04-07T10:33:39.974Z,2.50
2023-04-07T10:36:07.329Z,2.38
2023-04-07T10:38:33.768Z,2.55
2023-04-07T10:41:00.150Z,2.25
2023-04-07T10:43:44.141Z,2.38
2023-04-07T10:46:10.521Z,2.58
2023-04-07T10:48:37.248Z,2.08
2023-04-07T10:51:07.298Z,2.65
2023-04-07T10:53:36.968Z,2.53
2023-04-07T10:56:03.302Z,2.63
2023-04-07T10:58:30.737Z,5.03
2023-04-07T11:00:57.080Z,3.20
2023-04-07T11:03:24.825Z,3.55
2023-04-07T11:05:51.233Z,3.08
2023-04-07T11:08:36.506Z,3.03
2023-04-07T11:11:03.590Z,3.03
2023-04-07T11:13:39.828Z,3.25
2023-04-07T11:16:06.340Z,3.03
2023-04-07T11:18:32.627Z,2.80
2023-04-07T11:20:59.196Z,2.63
2023-04-07T11:23:27.097Z,3.28
2023-04-07T11:25:59.087Z,2.90
2023-04-07T11:28:25.377Z,4.28
2023-04-07T11:30:53.863Z,3.53
2023-04-07T11:33:21.406Z,3.13
2023-04-07T11:35:48.730Z,3.80
2023-04-07T11:38:16.433Z,3.67
2023-04-07T11:40:42.755Z,4.25
2023-04-07T11:43:28.097Z,3.80
2023-04-07T11:46:04.532Z,4.03
2023-04-07T11:48:31.814Z,4.03
2023-04-07T11:50:58.461Z,3.63
2023-04-07T11:53:27.651Z,4.00
2023-04-07T11:56:03.549Z,4.15
2023-04-07T11:58:30.021Z,4.25
2023-04-07T12:01:03.388Z,3.85
2023-04-07T12:03:29.774Z,3.67
2023-04-07T12:05:56.412Z,3.50
2023-04-07T12:08:36.534Z,3.58
2023-04-07T12:11:04.499Z,4.20
2023-04-07T12:13:31.220Z,3.65
2023-04-07T12:16:00.759Z,4.07
2023-04-07T12:18:28.177Z,3.90
2023-04-07T12:20:54.542Z,4.03
2023-04-07T12:23:22.207Z,3.90
2023-04-07T12:25:48.748Z,3.10
2023-04-07T12:28:15.530Z,4.00
2023-04-07T12:30:42.235Z,3.08
2023-04-07T12:33:08.545Z,2.78
2023-04-07T12:35:35.278Z,3.13
2023-04-07T12:38:01.780Z,3.03
2023-04-07T12:40:29.361Z,3.08
2023-04-07T12:42:58.314Z,2.47
2023-04-07T12:45:24.773Z,2.42
2023-04-07T12:47:51.155Z,2.15
2023-04-07T12:50:17.578Z,2.00
2023-04-07T12:52:43.979Z,2.45
2023-04-07T12:55:10.937Z,1.80
2023-04-07T12:57:37.753Z,1.98
2023-04-07T13:00:04.256Z,1.83
2023-04-07T13:02:31.018Z,2.47
2023-04-07T13:04:57.442Z,2.10
2023-04-07T13:07:23.807Z,2.55
2023-04-07T13:09:50.269Z,2.40
2023-04-07T13:12:16.506Z,1.65
2023-04-07T13:14:52.996Z,2.53
2023-04-07T13:17:23.753Z,2.42
2023-04-07T13:19:50.285Z,2.90
2023-04-07T13:22:21.198Z,2.53
2023-04-07T13:24:48.237Z,2.55
2023-04-07T13:27:14.562Z,3.25
2023-04-07T13:29:41.048Z,2.95
2023-04-07T13:32:08.085Z,3.47
2023-04-07T13:34:34.970Z,2.63
2023-04-07T13:37:02.388Z,3.00
2023-04-07T13:39:28.924Z,3.00
2023-04-07T13:41:56.081Z,4.18
2023-04-07T13:44:22.452Z,2.90
2023-04-07T13:46:48.868Z,3.50
2023-04-07T13:49:15.293Z,3.70
2023-04-07T13:51:42.052Z,4.22
2023-04-07T13:54:08.681Z,4.10
2023-04-07T13:56:38.601Z,3.13
2023-04-07T13:59:06.624Z,4.25
2023-04-07T14:01:33.875Z,3.47
2023-04-07T14:04:01.134Z,3.55
2023-04-07T14:06:27.625Z,3.92
2023-04-07T14:08:53.913Z,3.65
2023-04-07T14:11:21.941Z,3.75
2023-04-07T14:13:48.919Z,3.60
2023-04-07T14:16:17.142Z,3.03
2023-04-07T14:18:43.628Z,3.03
2023-04-07T14:21:10.117Z,2.92
2023-04-07T14:23:37.876Z,3.55
2023-04-07T14:26:04.409Z,3.03
2023-04-07T14:28:30.725Z,2.47
2023-04-07T14:30:57.069Z,3.17
2023-04-07T14:33:23.450Z,3.22
2023-04-07T14:35:49.719Z,3.05
2023-04-07T14:38:16.114Z,2.75
2023-04-07T14:40:42.444Z,2.70
2023-04-07T14:43:10.104Z,2.70
2023-04-07T14:45:38.818Z,3.72
2023-04-07T14:48:05.881Z,3.58
2023-04-07T14:50:32.687Z,3.97
2023-04-07T14:52:59.116Z,4.25
2023-04-07T14:55:25.583Z,4.40
2023-04-07T14:57:51.938Z,3.97
2023-04-07T15:00:18.308Z,4.45
2023-04-07T15:02:44.725Z,4.15
2023-04-07T15:05:11.224Z,4.03
2023-04-07T15:07:37.581Z,4.03
2023-04-07T15:10:03.949Z,3.45
2023-04-07T15:12:31.612Z,3.75
2023-04-07T15:14:58.136Z,3.45
2023-04-07T15:17:36.395Z,4.57
2023-04-07T15:20:09.537Z,3.42
2023-04-07T15:22:36.057Z,3.15
2023-04-07T15:25:03.476Z,3.47
2023-04-07T15:27:29.791Z,3.42
2023-04-07T15:29:56.110Z,4.30
2023-04-07T15:32:22.407Z,3.10
2023-04-07T15:34:49.388Z,3.80
2023-04-07T15:37:17.286Z,4.00
2023-04-07T15:39:43.719Z,4.63
2023-04-07T15:42:12.406Z,4.00
2023-04-07T15:44:39.759Z,3.42
2023-04-07T15:47:06.591Z,4.20
2023-04-07T15:49:33.093Z,3.83
2023-04-07T15:51:59.735Z,4.20
2023-04-07T15:54:26.171Z,4.40
2023-04-07T15:56:53.143Z,4.28
2023-04-07T15:59:19.412Z,5.18
2023-04-07T16:01:45.862Z,5.25
2023-04-07T16:04:12.312Z,5.75
2023-04-07T16:06:39.122Z,5.72
2023-04-07T16:09:05.639Z,5.25
2023-04-07T16:11:31.959Z,5.20
2023-04-07T16:13:58.247Z,4.72
2023-04-07T16:16:24.672Z,4.90
2023-04-07T16:18:51.875Z,5.38
2023-04-07T16:21:18.120Z,6.10
2023-04-07T16:23:44.423Z,4.47
2023-04-07T16:26:11.002Z,5.30
2023-04-07T16:28:39.132Z,5.60
2023-04-07T16:31:08.611Z,6.43
2023-04-07T16:33:35.645Z,7.35
2023-04-07T16:36:02.008Z,7.38
2023-04-07T16:38:29.083Z,8.23
2023-04-07T16:41:03.790Z,9.45
2023-04-07T16:43:30.756Z,9.02
2023-04-07T16:45:59.806Z,8.00
2023-04-07T16:48:26.345Z,10.23
2023-04-07T16:50:52.721Z,9.80
2023-04-07T16:53:21.087Z,8.95
2023-04-07T16:55:47.893Z,10.10
2023-04-07T16:58:18.630Z,9.27
2023-04-07T17:00:45.080Z,8.82
2023-04-07T17:03:13.154Z,8.50
2023-04-07T17:05:39.734Z,7.72
2023-04-07T17:08:06.070Z,8.02
2023-04-07T17:10:32.310Z,9.20
2023-04-07T17:12:58.740Z,8.85
2023-04-07T17:15:25.026Z,8.60
2023-04-07T17:17:51.531Z,8.93
2023-04-07T17:20:18.089Z,8.43
2023-04-07T17:22:45.683Z,10.10
2023-04-07T17:25:12.175Z,10.38
2023-04-07T17:27:38.649Z,9.75
2023-04-07T17:30:05.336Z,10.82
2023-04-07T17:32:31.736Z,11.25
2023-04-07T17:34:58.283Z,10.75
2023-04-07T17:37:24.574Z,10.70
2023-04-07T17:39:50.861Z,11.40
2023-04-07T17:42:17.097Z,11.20
2023-04-07T17:44:43.720Z,12.10
2023-04-07T17:47:10.042Z,11.13
2023-04-07T17:49:36.347Z,12.07
2023-04-07T17:52:02.908Z,11.95
2023-04-07T17:54:29.239Z,11.68
2023-04-07T17:56:56.229Z,12.25
2023-04-07T17:59:22.523Z,12.05
2023-04-07T18:01:48.923Z,11.88
2023-04-07T18:04:15.455Z,12.18
2023-04-07T18:06:41.833Z,12.05
2023-04-07T18:09:08.149Z,13.15
2023-04-07T18:11:34.559Z,12.13
2023-04-07T18:14:00.857Z,12.98
2023-04-07T18:16:27.160Z,12.80
2023-04-07T18:18:53.477Z,13.30
2023-04-07T18:21:19.718Z,13.45
2023-04-07T18:23:46.336Z,14.85
2023-04-07T18:26:12.659Z,14.77
2023-04-07T18:28:38.995Z,15.02
2023-04-07T18:31:06.871Z,19.58
2023-04-07T18:33:34.230Z,15.55
2023-04-07T18:36:02.334Z,15.23
2023-04-07T18:38:28.626Z,15.45
2023-04-07T18:40:54.879Z,17.27
2023-04-07T18:43:21.611Z,15.00
2023-04-07T18:45:48.226Z,16.83
2023-04-07T18:48:15.605Z,16.48
2023-04-07T18:50:42.231Z,15.95
2023-04-07T18:53:08.529Z,16.45
2023-04-07T18:55:34.840Z,17.70
2023-04-07T18:58:01.099Z,18.00
2023-04-07T19:00:27.397Z,19.10
2023-04-07T19:02:53.762Z,19.75
2023-04-07T19:05:23.080Z,19.95
2023-04-07T19:07:51.519Z,21.02
2023-04-07T19:10:17.842Z,22.35
2023-04-07T19:12:44.515Z,21.65
2023-04-07T19:15:11.036Z,20.92
2023-04-07T19:17:37.759Z,20.25
2023-04-07T19:20:04.346Z,18.85
2023-04-07T19:22:30.612Z,20.80
2023-04-07T19:24:56.815Z,20.00
2023-04-07T19:27:23.747Z,20.35
2023-04-07T19:29:50.432Z,19.40
2023-04-07T19:32:16.880Z,21.23
2023-04-07T19:34:43.137Z,20.40
2023-04-07T19:37:09.498Z,20.65
2023-04-07T19:39:35.789Z,19.73
2023-04-07T19:42:02.127Z,20.23
2023-04-07T19:44:28.364Z,20.75
2023-04-07T19:46:54.644Z,19.63
2023-04-07T19:49:21.669Z,19.38
2023-04-07T19:51:47.970Z,19.25
2023-04-07T19:54:14.274Z,18.77
2023-04-07T19:56:40.566Z,20.42
2023-04-07T19:59:07.246Z,19.80
2023-04-07T20:01:33.595Z,19.08
2023-04-07T20:04:00.054Z,20.60
2023-04-07T20:06:27.247Z,20.42
2023-04-07T20:08:54.143Z,19.40
2023-04-07T20:11:21.636Z,20.38
2023-04-07T20:13:48.610Z,21.50
2023-04-07T20:16:15.071Z,21.25
2023-04-07T20:18:41.374Z,19.67
2023-04-07T20:21:07.746Z,19.73
2023-04-07T20:23:34.130Z,20.25
2023-04-07T20:26:01.619Z,20.73
2023-04-07T20:28:27.920Z,19.92
2023-04-07T20:30:54.294Z,20.88
2023-04-07T20:33:20.651Z,19.58
2023-04-07T20:35:47.028Z,19.25
2023-04-07T20:38:13.532Z,20.27
2023-04-07T20:40:39.845Z,19.40
2023-04-07T20:43:06.445Z,19.90
2023-04-07T20:45:33.153Z,21.20
2023-04-07T20:47:59.457Z,21.25
2023-04-07T20:50:25.954Z,22.40
2023-04-07T20:52:52.889Z,21.35
2023-04-07T20:55:19.251Z,20.35
2023-04-07T20:57:45.745Z,22.02
2023-04-07T21:00:12.135Z,21.98
2023-04-07T21:02:38.666Z,22.33
2023-04-07T21:05:05.104Z,22.73
2023-04-07T21:07:31.453Z,22.52
2023-04-07T21:09:57.793Z,21.00
2023-04-07T21:12:24.462Z,22.00
2023-04-07T21:14:51.089Z,21.30
2023-04-07T21:17:17.409Z,22.05
2023-04-07T21:19:43.702Z,23.58
2023-04-07T21:22:12.737Z,23.10
2023-04-07T21:24:39.382Z,23.25
2023-04-07T21:27:06.070Z,22.70
2023-04-07T21:29:32.308Z,22.50
2023-04-07T21:31:59.666Z,22.48
2023-04-07T21:34:26.688Z,23.60
2023-04-07T21:36:53.233Z,22.92
2023-04-07T21:39:19.568Z,23.52
2023-04-07T21:41:45.976Z,24.02
2023-04-07T21:44:13.021Z,24.50
2023-04-07T21:46:39.385Z,23.95
2023-04-07T21:49:05.698Z,23.13
2023-04-07T21:51:33.624Z,23.10
2023-04-07T21:53:59.896Z,24.73
2023-04-07T21:56:28.401Z,25.27
2023-04-07T21:58:55.309Z,23.00
2023-04-07T22:01:21.631Z,24.33
2023-04-07T22:03:48.543Z,23.60
2023-04-07T22:06:15.416Z,24.70
2023-04-07T22:08:51.654Z,25.02
2023-04-07T22:11:24.816Z,25.58
2023-04-07T22:13:51.199Z,24.92
2023-04-07T22:16:17.444Z,24.55
2023-04-07T22:18:43.848Z,24.15
2023-04-07T22:21:10.216Z,23.33
2023-04-07T22:23:36.500Z,24.50
2023-04-07T22:26:02.806Z,23.77
2023-04-07T22:28:29.081Z,23.90
2023-04-07T22:30:55.632Z,22.73
2023-04-07T22:33:21.917Z,23.85
2023-04-07T22:35:48.195Z,23.05
2023-04-07T22:38:17.176Z,22.98
2023-04-07T22:40:43.558Z,23.00
2023-04-07T22:43:09.803Z,22.85
2023-04-07T22:45:36.104Z,23.42
2023-04-07T22:48:02.494Z,23.10
2023-04-07T22:50:28.888Z,23.70
2023-04-07T22:52:55.218Z,22.95
2023-04-07T22:55:21.627Z,23.88
2023-04-07T22:57:47.928Z,24.45
2023-04-07T23:00:14.411Z,22.30
2023-04-07T23:02:40.861Z,22.77
2023-04-07T23:05:10.024Z,24.33
2023-04-07T23:07:37.030Z,23.83
2023-04-07T23:10:03.436Z,22.17
2023-04-07T23:12:29.730Z,21.10
2023-04-07T23:14:56.264Z,20.35
2023-04-07T23:17:22.620Z,19.55
2023-04-07T23:19:48.939Z,21.17
2023-04-07T23:22:15.317Z,20.75
2023-04-07T23:24:41.639Z,21.98
2023-04-07T23:27:07.921Z,21.98
2023-04-07T23:29:34.160Z,22.58
2023-04-07T23:32:00.960Z,21.05
2023-04-07T23:34:27.279Z,21.17
2023-04-07T23:36:53.537Z,21.75
2023-04-07T23:39:19.900Z,22.35
2023-04-07T23:41:46.210Z,21.55
2023-04-07T23:44:12.704Z,21.98
2023-04-07T23:46:38.979Z,27.38
2023-04-07T23:49:05.238Z,25.02
2023-04-07T23:51:31.654Z,24.17
2023-04-07T23:53:58.039Z,23.25
2023-04-07T23:56:24.337Z,24.92
2023-04-07T23:58:50.852Z,23.15
